^^
Meteo Knjazevac Station Historical Data
Daily Summary for January 22, 2022 Units:  Both    English   Metric
Daily Weekly Monthly Yearly Custom
  High: Low: Average:
Temperature: 27.9 °F /  -2.3 °C 24.4 °F /  -4.2 °C 26.4 °F /  -3.1 °C
Dew Point: 21 °F /  -6.1 °C 19.2 °F /  -7.1 °C 20.2 °F /  -6.6 °C
Humidity: 81% 74% 77%
Wind Speed: 6mph /  9.7km/h - 2.2mph /  3.5km/h
Wind Gust: 12mph /  19.3km/h - -
Wind- - WSW
Pressure: 30.23 in /  1023.6 hPa 30.19 in /  1022.2 hPa -
Precipitation: 0.00 in /  0 mm    
Historical Graphs
 
 
Tabular Data for January 22, 2022
Time Temperature Dew Point Pressure Wind Wind Speed Wind Gust Humidity Rainfall Rate (Hourly) solar Conditions
00:00 27.9 °F /  -2.3 °C 21 °F /  -6.1 °C 30.23in /  1023.6hPa NW 1mph /  1.6km/h 7mph /  11.3km/h 75% 0.00in /  0mm 0 W/m2
00:10 27.9 °F /  -2.3 °C 21 °F /  -6.1 °C 30.22in /  1023.2hPa NNW 2mph /  3.2km/h 12mph /  19.3km/h 75% 0.00in /  0mm 0 W/m2
00:20 27.9 °F /  -2.3 °C 20.6 °F /  -6.3 °C 30.22in /  1023.2hPa West 2mph /  3.2km/h 5mph /  8km/h 74% 0.00in /  0mm 0 W/m2
00:30 27.7 °F /  -2.4 °C 20.8 °F /  -6.2 °C 30.22in /  1023.2hPa WSW 3mph /  4.8km/h 6mph /  9.7km/h 75% 0.00in /  0mm 0 W/m2
00:40 27.7 °F /  -2.4 °C 20.8 °F /  -6.2 °C 30.22in /  1023.2hPa SSW 2mph /  3.2km/h 5mph /  8km/h 75% 0.00in /  0mm 0 W/m2
00:50 27.5 °F /  -2.5 °C 20.6 °F /  -6.3 °C 30.22in /  1023.2hPa WSW 2mph /  3.2km/h 6mph /  9.7km/h 75% 0.00in /  0mm 0 W/m2
01:10 27.9 °F /  -2.3 °C 21 °F /  -6.1 °C 30.22in /  1023.2hPa WSW 6mph /  9.7km/h 9mph /  14.5km/h 75% 0.00in /  0mm 0 W/m2
01:20 27.9 °F /  -2.3 °C 21 °F /  -6.1 °C 30.22in /  1023.2hPa West 2mph /  3.2km/h 9mph /  14.5km/h 75% 0.00in /  0mm 0 W/m2
01:30 27.7 °F /  -2.4 °C 20.8 °F /  -6.2 °C 30.22in /  1023.2hPa NW 1mph /  1.6km/h 4mph /  6.4km/h 75% 0.00in /  0mm 0 W/m2
01:40 27.5 °F /  -2.5 °C 20.6 °F /  -6.3 °C 30.21in /  1022.9hPa West 1mph /  1.6km/h 3mph /  4.8km/h 75% 0.00in /  0mm 0 W/m2
01:50 27.1 °F /  -2.7 °C 20.9 °F /  -6.2 °C 30.22in /  1023.2hPa Calm   4mph /  6.4km/h 77% 0.00in /  0mm 0 W/m2
02:00 26.4 °F /  -3.1 °C 20.2 °F /  -6.6 °C 30.22in /  1023.2hPa Calm   3mph /  4.8km/h 77% 0.00in /  0mm 0 W/m2
02:10 26.1 °F /  -3.3 °C 20.1 °F /  -6.6 °C 30.22in /  1023.2hPa South 2mph /  3.2km/h 6mph /  9.7km/h 78% 0.00in /  0mm 0 W/m2
02:20 25.5 °F /  -3.6 °C 19.6 °F /  -6.9 °C 30.21in /  1022.9hPa SW 3mph /  4.8km/h 7mph /  11.3km/h 78% 0.00in /  0mm 0 W/m2
02:30 25.3 °F /  -3.7 °C 19.7 °F /  -6.8 °C 30.21in /  1022.9hPa WSW 3mph /  4.8km/h 6mph /  9.7km/h 79% 0.00in /  0mm 0 W/m2
02:40 25.2 °F /  -3.8 °C 19.6 °F /  -6.9 °C 30.20in /  1022.6hPa South 2mph /  3.2km/h 4mph /  6.4km/h 79% 0.00in /  0mm 0 W/m2
02:50 25 °F /  -3.9 °C 19.4 °F /  -7 °C 30.19in /  1022.2hPa ENE 1mph /  1.6km/h 5mph /  8km/h 79% 0.00in /  0mm 0 W/m2
03:00 24.8 °F /  -4 °C 19.2 °F /  -7.1 °C 30.20in /  1022.6hPa WNW 2mph /  3.2km/h 6mph /  9.7km/h 79% 0.00in /  0mm 0 W/m2
03:10 24.6 °F /  -4.1 °C 19.3 °F /  -7.1 °C 30.20in /  1022.6hPa NW 1mph /  1.6km/h 2mph /  3.2km/h 80% 0.00in /  0mm 0 W/m2
03:20 24.4 °F /  -4.2 °C 19.2 °F /  -7.1 °C 30.20in /  1022.6hPa North 2mph /  3.2km/h 3mph /  4.8km/h 80% 0.00in /  0mm 0 W/m2
03:30 24.4 °F /  -4.2 °C 19.4 °F /  -7 °C 30.20in /  1022.6hPa West 5mph /  8km/h 8mph /  12.9km/h 81% 0.00in /  0mm 0 W/m2
03:40 24.4 °F /  -4.2 °C 19.4 °F /  -7 °C 30.19in /  1022.2hPa West 6mph /  9.7km/h 9mph /  14.5km/h 81% 0.00in /  0mm 0 W/m2
Knjazevac, Serbia
Compliments of Weather Underground - 2 mb